sensor_id;sensor_type;location;lat;lon;timestamp;P1;durP1;ratioP1;P2;durP2;ratioP2
51636;SDS011;37713;53.254;6.460;2023-01-24T00:00:27;17.48;;;9.30;;
51636;SDS011;37713;53.254;6.460;2023-01-24T00:02:53;20.15;;;10.05;;
51636;SDS011;37713;53.254;6.460;2023-01-24T00:05:19;19.67;;;9.70;;
51636;SDS011;37713;53.254;6.460;2023-01-24T00:07:45;22.10;;;10.55;;
51636;SDS011;37713;53.254;6.460;2023-01-24T00:10:11;22.17;;;10.30;;
51636;SDS011;37713;53.254;6.460;2023-01-24T00:12:37;21.98;;;9.15;;
51636;SDS011;37713;53.254;6.460;2023-01-24T00:15:03;21.50;;;11.07;;
51636;SDS011;37713;53.254;6.460;2023-01-24T00:17:29;18.02;;;9.40;;
51636;SDS011;37713;53.254;6.460;2023-01-24T00:19:55;18.45;;;9.90;;
51636;SDS011;37713;53.254;6.460;2023-01-24T00:22:21;16.85;;;9.18;;
51636;SDS011;37713;53.254;6.460;2023-01-24T00:24:47;20.20;;;10.57;;
51636;SDS011;37713;53.254;6.460;2023-01-24T00:27:14;18.60;;;9.40;;
51636;SDS011;37713;53.254;6.460;2023-01-24T00:29:40;17.73;;;9.55;;
51636;SDS011;37713;53.254;6.460;2023-01-24T00:32:06;19.60;;;10.95;;
51636;SDS011;37713;53.254;6.460;2023-01-24T00:34:32;18.73;;;10.27;;
51636;SDS011;37713;53.254;6.460;2023-01-24T00:36:58;18.73;;;11.32;;
51636;SDS011;37713;53.254;6.460;2023-01-24T00:39:24;19.60;;;10.60;;
51636;SDS011;37713;53.254;6.460;2023-01-24T00:41:50;20.15;;;11.35;;
51636;SDS011;37713;53.254;6.460;2023-01-24T00:44:15;20.63;;;12.07;;
51636;SDS011;37713;53.254;6.460;2023-01-24T00:46:41;22.17;;;12.73;;
51636;SDS011;37713;53.254;6.460;2023-01-24T00:49:07;23.42;;;12.73;;
51636;SDS011;37713;53.254;6.460;2023-01-24T00:51:33;23.75;;;13.27;;
51636;SDS011;37713;53.254;6.460;2023-01-24T00:53:59;23.58;;;13.38;;
51636;SDS011;37713;53.254;6.460;2023-01-24T00:56:25;23.42;;;12.02;;
51636;SDS011;37713;53.254;6.460;2023-01-24T00:58:51;24.13;;;13.15;;
51636;SDS011;37713;53.254;6.460;2023-01-24T01:01:17;26.30;;;13.40;;
51636;SDS011;37713;53.254;6.460;2023-01-24T01:03:43;24.88;;;13.60;;
51636;SDS011;37713;53.254;6.460;2023-01-24T01:06:12;27.02;;;15.35;;
51636;SDS011;37713;53.254;6.460;2023-01-24T01:08:40;27.15;;;15.38;;
51636;SDS011;37713;53.254;6.460;2023-01-24T01:11:06;28.45;;;14.73;;
51636;SDS011;37713;53.254;6.460;2023-01-24T01:13:32;28.55;;;15.55;;
51636;SDS011;37713;53.254;6.460;2023-01-24T01:16:05;29.15;;;15.48;;
51636;SDS011;37713;53.254;6.460;2023-01-24T01:18:33;29.65;;;15.45;;
51636;SDS011;37713;53.254;6.460;2023-01-24T01:21:00;25.88;;;14.63;;
51636;SDS011;37713;53.254;6.460;2023-01-24T01:23:26;28.30;;;15.18;;
51636;SDS011;37713;53.254;6.460;2023-01-24T01:25:52;28.15;;;15.80;;
51636;SDS011;37713;53.254;6.460;2023-01-24T01:28:18;30.13;;;15.38;;
51636;SDS011;37713;53.254;6.460;2023-01-24T01:30:48;28.50;;;14.65;;
51636;SDS011;37713;53.254;6.460;2023-01-24T01:33:17;30.02;;;15.15;;
51636;SDS011;37713;53.254;6.460;2023-01-24T01:35:42;33.30;;;14.93;;
51636;SDS011;37713;53.254;6.460;2023-01-24T01:38:08;31.92;;;14.90;;
51636;SDS011;37713;53.254;6.460;2023-01-24T01:40:34;29.02;;;14.57;;
51636;SDS011;37713;53.254;6.460;2023-01-24T01:43:01;31.25;;;15.43;;
51636;SDS011;37713;53.254;6.460;2023-01-24T01:45:38;28.48;;;15.23;;
51636;SDS011;37713;53.254;6.460;2023-01-24T01:48:12;32.25;;;16.77;;
51636;SDS011;37713;53.254;6.460;2023-01-24T01:50:46;27.50;;;15.00;;
51636;SDS011;37713;53.254;6.460;2023-01-24T01:53:20;28.02;;;15.85;;
51636;SDS011;37713;53.254;6.460;2023-01-24T01:55:50;28.83;;;15.67;;
51636;SDS011;37713;53.254;6.460;2023-01-24T01:58:20;31.67;;;15.63;;
51636;SDS011;37713;53.254;6.460;2023-01-24T02:00:47;32.75;;;16.70;;
51636;SDS011;37713;53.254;6.460;2023-01-24T02:03:16;28.35;;;14.90;;
51636;SDS011;37713;53.254;6.460;2023-01-24T02:08:33;28.10;;;14.40;;
51636;SDS011;37713;53.254;6.460;2023-01-24T02:10:59;30.05;;;14.20;;
51636;SDS011;37713;53.254;6.460;2023-01-24T02:13:44;29.60;;;15.15;;
51636;SDS011;37713;53.254;6.460;2023-01-24T02:16:12;32.30;;;16.08;;
51636;SDS011;37713;53.254;6.460;2023-01-24T02:18:40;32.85;;;15.10;;
51636;SDS011;37713;53.254;6.460;2023-01-24T02:21:12;32.13;;;15.85;;
51636;SDS011;37713;53.254;6.460;2023-01-24T02:23:50;29.73;;;14.82;;
51636;SDS011;37713;53.254;6.460;2023-01-24T02:26:26;33.30;;;16.08;;
51636;SDS011;37713;53.254;6.460;2023-01-24T02:28:57;34.65;;;16.65;;
51636;SDS011;37713;53.254;6.460;2023-01-24T02:34:27;33.20;;;16.33;;
51636;SDS011;37713;53.254;6.460;2023-01-24T02:36:55;30.98;;;15.52;;
51636;SDS011;37713;53.254;6.460;2023-01-24T02:39:43;30.70;;;15.50;;
51636;SDS011;37713;53.254;6.460;2023-01-24T02:42:21;33.10;;;16.90;;
51636;SDS011;37713;53.254;6.460;2023-01-24T02:47:17;35.72;;;17.38;;
51636;SDS011;37713;53.254;6.460;2023-01-24T02:49:43;34.67;;;16.35;;
51636;SDS011;37713;53.254;6.460;2023-01-24T02:52:09;33.17;;;16.60;;
51636;SDS011;37713;53.254;6.460;2023-01-24T02:54:53;36.33;;;16.48;;
51636;SDS011;37713;53.254;6.460;2023-01-24T02:57:19;34.53;;;17.50;;
51636;SDS011;37713;53.254;6.460;2023-01-24T03:00:05;38.10;;;16.92;;
51636;SDS011;37713;53.254;6.460;2023-01-24T03:02:31;35.00;;;16.38;;
51636;SDS011;37713;53.254;6.460;2023-01-24T03:04:57;31.27;;;16.17;;
51636;SDS011;37713;53.254;6.460;2023-01-24T03:07:23;35.22;;;17.02;;
51636;SDS011;37713;53.254;6.460;2023-01-24T03:09:49;31.15;;;15.85;;
51636;SDS011;37713;53.254;6.460;2023-01-24T03:12:15;31.98;;;15.95;;
51636;SDS011;37713;53.254;6.460;2023-01-24T03:15:00;30.63;;;15.25;;
51636;SDS011;37713;53.254;6.460;2023-01-24T03:17:44;31.83;;;16.17;;
51636;SDS011;37713;53.254;6.460;2023-01-24T03:20:28;31.48;;;16.60;;
51636;SDS011;37713;53.254;6.460;2023-01-24T03:23:13;34.30;;;15.77;;
51636;SDS011;37713;53.254;6.460;2023-01-24T03:25:57;35.15;;;15.85;;
51636;SDS011;37713;53.254;6.460;2023-01-24T03:28:42;31.92;;;15.65;;
51636;SDS011;37713;53.254;6.460;2023-01-24T03:31:27;31.95;;;15.85;;
51636;SDS011;37713;53.254;6.460;2023-01-24T03:34:12;33.20;;;15.38;;
51636;SDS011;37713;53.254;6.460;2023-01-24T03:36:57;33.53;;;16.05;;
51636;SDS011;37713;53.254;6.460;2023-01-24T03:39:24;31.02;;;15.82;;
51636;SDS011;37713;53.254;6.460;2023-01-24T03:42:09;33.38;;;16.23;;
51636;SDS011;37713;53.254;6.460;2023-01-24T03:44:35;31.02;;;16.23;;
51636;SDS011;37713;53.254;6.460;2023-01-24T03:47:01;32.58;;;16.77;;
51636;SDS011;37713;53.254;6.460;2023-01-24T03:49:27;33.80;;;16.48;;
51636;SDS011;37713;53.254;6.460;2023-01-24T03:52:11;31.33;;;15.48;;
51636;SDS011;37713;53.254;6.460;2023-01-24T03:54:56;32.28;;;15.98;;
51636;SDS011;37713;53.254;6.460;2023-01-24T03:57:23;31.27;;;15.52;;
51636;SDS011;37713;53.254;6.460;2023-01-24T03:59:49;30.13;;;16.05;;
51636;SDS011;37713;53.254;6.460;2023-01-24T04:02:15;33.25;;;16.05;;
51636;SDS011;37713;53.254;6.460;2023-01-24T04:04:41;34.47;;;16.42;;
51636;SDS011;37713;53.254;6.460;2023-01-24T04:07:26;30.92;;;16.00;;
51636;SDS011;37713;53.254;6.460;2023-01-24T04:09:52;34.35;;;16.55;;
51636;SDS011;37713;53.254;6.460;2023-01-24T04:12:18;31.60;;;16.13;;
51636;SDS011;37713;53.254;6.460;2023-01-24T04:14:44;32.22;;;16.38;;
51636;SDS011;37713;53.254;6.460;2023-01-24T04:17:10;30.70;;;16.15;;
51636;SDS011;37713;53.254;6.460;2023-01-24T04:19:36;30.55;;;15.52;;
51636;SDS011;37713;53.254;6.460;2023-01-24T04:22:01;25.77;;;14.18;;
51636;SDS011;37713;53.254;6.460;2023-01-24T04:24:27;29.52;;;14.45;;
51636;SDS011;37713;53.254;6.460;2023-01-24T04:26:53;30.02;;;15.52;;
51636;SDS011;37713;53.254;6.460;2023-01-24T04:29:19;27.70;;;13.90;;
51636;SDS011;37713;53.254;6.460;2023-01-24T04:31:45;28.08;;;14.35;;
51636;SDS011;37713;53.254;6.460;2023-01-24T04:34:11;30.23;;;14.95;;
51636;SDS011;37713;53.254;6.460;2023-01-24T04:36:37;31.15;;;15.18;;
51636;SDS011;37713;53.254;6.460;2023-01-24T04:39:03;29.25;;;14.73;;
51636;SDS011;37713;53.254;6.460;2023-01-24T04:41:29;31.90;;;16.05;;
51636;SDS011;37713;53.254;6.460;2023-01-24T04:43:54;29.48;;;14.93;;
51636;SDS011;37713;53.254;6.460;2023-01-24T04:46:20;32.67;;;16.35;;
51636;SDS011;37713;53.254;6.460;2023-01-24T04:48:46;29.95;;;15.50;;
51636;SDS011;37713;53.254;6.460;2023-01-24T04:51:12;28.42;;;14.85;;
51636;SDS011;37713;53.254;6.460;2023-01-24T04:53:38;26.17;;;14.45;;
51636;SDS011;37713;53.254;6.460;2023-01-24T04:56:05;27.27;;;14.15;;
51636;SDS011;37713;53.254;6.460;2023-01-24T04:58:32;25.58;;;14.20;;
51636;SDS011;37713;53.254;6.460;2023-01-24T05:00:59;28.27;;;14.43;;
51636;SDS011;37713;53.254;6.460;2023-01-24T05:03:25;30.20;;;14.38;;
51636;SDS011;37713;53.254;6.460;2023-01-24T05:05:52;29.38;;;15.32;;
51636;SDS011;37713;53.254;6.460;2023-01-24T05:08:18;27.63;;;14.40;;
51636;SDS011;37713;53.254;6.460;2023-01-24T05:10:45;29.85;;;14.93;;
51636;SDS011;37713;53.254;6.460;2023-01-24T05:13:11;28.73;;;14.65;;
51636;SDS011;37713;53.254;6.460;2023-01-24T05:15:37;28.25;;;15.18;;
51636;SDS011;37713;53.254;6.460;2023-01-24T05:18:03;25.83;;;14.40;;
51636;SDS011;37713;53.254;6.460;2023-01-24T05:20:29;35.35;;;15.50;;
51636;SDS011;37713;53.254;6.460;2023-01-24T05:22:56;24.70;;;13.88;;
51636;SDS011;37713;53.254;6.460;2023-01-24T05:25:22;26.42;;;14.15;;
51636;SDS011;37713;53.254;6.460;2023-01-24T05:27:50;24.25;;;13.88;;
51636;SDS011;37713;53.254;6.460;2023-01-24T05:30:16;27.13;;;14.35;;
51636;SDS011;37713;53.254;6.460;2023-01-24T05:32:42;25.50;;;14.10;;
51636;SDS011;37713;53.254;6.460;2023-01-24T05:35:08;24.30;;;13.95;;
51636;SDS011;37713;53.254;6.460;2023-01-24T05:37:38;26.15;;;13.88;;
51636;SDS011;37713;53.254;6.460;2023-01-24T05:40:05;23.30;;;13.82;;
51636;SDS011;37713;53.254;6.460;2023-01-24T05:42:32;25.63;;;14.27;;
51636;SDS011;37713;53.254;6.460;2023-01-24T05:44:58;26.35;;;13.85;;
51636;SDS011;37713;53.254;6.460;2023-01-24T05:47:24;24.65;;;13.05;;
51636;SDS011;37713;53.254;6.460;2023-01-24T05:49:49;23.52;;;13.85;;
51636;SDS011;37713;53.254;6.460;2023-01-24T05:52:16;23.85;;;13.48;;
51636;SDS011;37713;53.254;6.460;2023-01-24T05:54:49;23.60;;;13.00;;
51636;SDS011;37713;53.254;6.460;2023-01-24T05:59:42;24.92;;;12.98;;
51636;SDS011;37713;53.254;6.460;2023-01-24T06:02:08;23.90;;;13.23;;
51636;SDS011;37713;53.254;6.460;2023-01-24T06:04:34;24.80;;;14.43;;
51636;SDS011;37713;53.254;6.460;2023-01-24T06:06:59;25.60;;;14.07;;
51636;SDS011;37713;53.254;6.460;2023-01-24T06:09:25;24.88;;;14.65;;
51636;SDS011;37713;53.254;6.460;2023-01-24T06:11:51;25.08;;;13.65;;
51636;SDS011;37713;53.254;6.460;2023-01-24T06:14:17;25.02;;;13.95;;
51636;SDS011;37713;53.254;6.460;2023-01-24T06:16:44;26.25;;;14.15;;
51636;SDS011;37713;53.254;6.460;2023-01-24T06:19:11;27.50;;;14.50;;
51636;SDS011;37713;53.254;6.460;2023-01-24T06:24:16;27.73;;;14.60;;
51636;SDS011;37713;53.254;6.460;2023-01-24T06:26:47;27.08;;;13.70;;
51636;SDS011;37713;53.254;6.460;2023-01-24T06:29:17;32.47;;;15.68;;
51636;SDS011;37713;53.254;6.460;2023-01-24T06:31:50;29.98;;;14.75;;
51636;SDS011;37713;53.254;6.460;2023-01-24T06:34:35;26.40;;;14.13;;
51636;SDS011;37713;53.254;6.460;2023-01-24T06:39:39;28.08;;;15.07;;
51636;SDS011;37713;53.254;6.460;2023-01-24T06:42:10;29.35;;;15.20;;
51636;SDS011;37713;53.254;6.460;2023-01-24T06:44:36;27.63;;;14.65;;
51636;SDS011;37713;53.254;6.460;2023-01-24T06:47:02;35.13;;;15.73;;
51636;SDS011;37713;53.254;6.460;2023-01-24T06:49:28;25.98;;;14.38;;
51636;SDS011;37713;53.254;6.460;2023-01-24T06:51:54;26.60;;;14.60;;
51636;SDS011;37713;53.254;6.460;2023-01-24T06:54:20;26.05;;;14.25;;
51636;SDS011;37713;53.254;6.460;2023-01-24T06:56:45;27.90;;;14.68;;
51636;SDS011;37713;53.254;6.460;2023-01-24T06:59:11;30.35;;;15.45;;
51636;SDS011;37713;53.254;6.460;2023-01-24T07:01:37;29.35;;;15.38;;
51636;SDS011;37713;53.254;6.460;2023-01-24T07:04:03;27.90;;;15.15;;
51636;SDS011;37713;53.254;6.460;2023-01-24T07:06:28;29.73;;;15.65;;
51636;SDS011;37713;53.254;6.460;2023-01-24T07:08:54;30.65;;;16.45;;
51636;SDS011;37713;53.254;6.460;2023-01-24T07:11:20;30.33;;;15.77;;
51636;SDS011;37713;53.254;6.460;2023-01-24T07:13:48;33.28;;;17.02;;
51636;SDS011;37713;53.254;6.460;2023-01-24T07:16:13;30.88;;;15.93;;
51636;SDS011;37713;53.254;6.460;2023-01-24T07:18:39;30.10;;;16.02;;
51636;SDS011;37713;53.254;6.460;2023-01-24T07:21:06;28.40;;;15.07;;
51636;SDS011;37713;53.254;6.460;2023-01-24T07:23:33;29.02;;;15.27;;
51636;SDS011;37713;53.254;6.460;2023-01-24T07:25:59;33.45;;;16.48;;
51636;SDS011;37713;53.254;6.460;2023-01-24T07:28:25;31.73;;;16.85;;
51636;SDS011;37713;53.254;6.460;2023-01-24T07:30:52;30.45;;;16.38;;
51636;SDS011;37713;53.254;6.460;2023-01-24T07:33:18;32.15;;;16.02;;
51636;SDS011;37713;53.254;6.460;2023-01-24T07:35:44;30.60;;;16.67;;
51636;SDS011;37713;53.254;6.460;2023-01-24T07:38:10;33.92;;;17.30;;
51636;SDS011;37713;53.254;6.460;2023-01-24T07:40:39;35.67;;;16.83;;
51636;SDS011;37713;53.254;6.460;2023-01-24T07:43:05;30.58;;;16.23;;
51636;SDS011;37713;53.254;6.460;2023-01-24T07:45:31;29.55;;;16.35;;
51636;SDS011;37713;53.254;6.460;2023-01-24T07:48:00;34.45;;;17.33;;
51636;SDS011;37713;53.254;6.460;2023-01-24T07:50:26;31.23;;;17.15;;
51636;SDS011;37713;53.254;6.460;2023-01-24T07:52:55;30.63;;;15.43;;
51636;SDS011;37713;53.254;6.460;2023-01-24T07:55:22;30.67;;;15.68;;
51636;SDS011;37713;53.254;6.460;2023-01-24T07:57:48;28.85;;;15.38;;
51636;SDS011;37713;53.254;6.460;2023-01-24T08:00:14;32.03;;;15.95;;
51636;SDS011;37713;53.254;6.460;2023-01-24T08:02:44;30.92;;;15.38;;
51636;SDS011;37713;53.254;6.460;2023-01-24T08:05:10;24.13;;;13.45;;
51636;SDS011;37713;53.254;6.460;2023-01-24T08:07:36;28.98;;;13.48;;
51636;SDS011;37713;53.254;6.460;2023-01-24T08:10:02;26.95;;;13.93;;
51636;SDS011;37713;53.254;6.460;2023-01-24T08:12:29;25.83;;;13.90;;
51636;SDS011;37713;53.254;6.460;2023-01-24T08:14:54;23.85;;;12.70;;
51636;SDS011;37713;53.254;6.460;2023-01-24T08:17:20;24.27;;;12.23;;
51636;SDS011;37713;53.254;6.460;2023-01-24T08:19:46;25.67;;;13.70;;
51636;SDS011;37713;53.254;6.460;2023-01-24T08:22:11;24.42;;;12.32;;
51636;SDS011;37713;53.254;6.460;2023-01-24T08:24:37;26.33;;;13.13;;
51636;SDS011;37713;53.254;6.460;2023-01-24T08:27:03;25.42;;;12.43;;
51636;SDS011;37713;53.254;6.460;2023-01-24T08:29:30;23.17;;;13.02;;
51636;SDS011;37713;53.254;6.460;2023-01-24T08:31:57;23.02;;;11.93;;
51636;SDS011;37713;53.254;6.460;2023-01-24T08:34:23;22.35;;;11.65;;
51636;SDS011;37713;53.254;6.460;2023-01-24T08:36:50;23.45;;;11.77;;
51636;SDS011;37713;53.254;6.460;2023-01-24T08:39:16;22.33;;;12.05;;
51636;SDS011;37713;53.254;6.460;2023-01-24T08:41:42;24.23;;;12.13;;
51636;SDS011;37713;53.254;6.460;2023-01-24T08:44:14;20.83;;;11.68;;
51636;SDS011;37713;53.254;6.460;2023-01-24T08:46:41;22.60;;;12.38;;
51636;SDS011;37713;53.254;6.460;2023-01-24T08:49:09;24.83;;;12.68;;
51636;SDS011;37713;53.254;6.460;2023-01-24T08:51:35;27.52;;;14.90;;
51636;SDS011;37713;53.254;6.460;2023-01-24T08:54:03;25.67;;;13.43;;
51636;SDS011;37713;53.254;6.460;2023-01-24T08:56:30;23.35;;;12.45;;
51636;SDS011;37713;53.254;6.460;2023-01-24T08:58:56;21.05;;;11.55;;
51636;SDS011;37713;53.254;6.460;2023-01-24T09:01:22;24.23;;;12.32;;
51636;SDS011;37713;53.254;6.460;2023-01-24T09:03:48;21.65;;;11.88;;
51636;SDS011;37713;53.254;6.460;2023-01-24T09:06:14;23.65;;;11.20;;
51636;SDS011;37713;53.254;6.460;2023-01-24T09:08:40;21.02;;;10.63;;
51636;SDS011;37713;53.254;6.460;2023-01-24T09:11:06;23.15;;;10.80;;
51636;SDS011;37713;53.254;6.460;2023-01-24T09:13:31;20.63;;;10.85;;
51636;SDS011;37713;53.254;6.460;2023-01-24T09:15:57;21.40;;;10.68;;
51636;SDS011;37713;53.254;6.460;2023-01-24T09:18:24;17.35;;;9.45;;
51636;SDS011;37713;53.254;6.460;2023-01-24T09:20:50;18.95;;;10.32;;
51636;SDS011;37713;53.254;6.460;2023-01-24T09:23:15;19.25;;;10.45;;
51636;SDS011;37713;53.254;6.460;2023-01-24T09:25:41;19.63;;;10.95;;
51636;SDS011;37713;53.254;6.460;2023-01-24T09:28:14;20.98;;;10.82;;
51636;SDS011;37713;53.254;6.460;2023-01-24T09:30:39;22.38;;;11.35;;
51636;SDS011;37713;53.254;6.460;2023-01-24T09:33:05;20.27;;;11.35;;
51636;SDS011;37713;53.254;6.460;2023-01-24T09:35:31;22.40;;;11.35;;
51636;SDS011;37713;53.254;6.460;2023-01-24T09:37:57;20.52;;;10.77;;
51636;SDS011;37713;53.254;6.460;2023-01-24T09:40:30;20.23;;;11.07;;
51636;SDS011;37713;53.254;6.460;2023-01-24T09:45:57;19.65;;;10.30;;
51636;SDS011;37713;53.254;6.460;2023-01-24T09:48:34;18.23;;;10.18;;
51636;SDS011;37713;53.254;6.460;2023-01-24T09:51:01;19.45;;;10.15;;
51636;SDS011;37713;53.254;6.460;2023-01-24T09:53:37;17.35;;;9.43;;
51636;SDS011;37713;53.254;6.460;2023-01-24T09:56:15;19.73;;;9.82;;
51636;SDS011;37713;53.254;6.460;2023-01-24T10:01:48;20.92;;;9.20;;
51636;SDS011;37713;53.254;6.460;2023-01-24T10:04:19;19.52;;;10.18;;
51636;SDS011;37713;53.254;6.460;2023-01-24T10:09:58;19.08;;;9.20;;
51636;SDS011;37713;53.254;6.460;2023-01-24T10:23:55;19.38;;;9.57;;
51636;SDS011;37713;53.254;6.460;2023-01-24T10:26:29;20.13;;;9.32;;
51636;SDS011;37713;53.254;6.460;2023-01-24T10:29:11;18.00;;;9.63;;
51636;SDS011;37713;53.254;6.460;2023-01-24T10:31:59;17.65;;;9.73;;
51636;SDS011;37713;53.254;6.460;2023-01-24T10:39:36;17.83;;;8.77;;
51636;SDS011;37713;53.254;6.460;2023-01-24T10:42:08;14.85;;;8.73;;
51636;SDS011;37713;53.254;6.460;2023-01-24T10:44:47;16.67;;;8.77;;
51636;SDS011;37713;53.254;6.460;2023-01-24T10:50:16;17.30;;;8.90;;
51636;SDS011;37713;53.254;6.460;2023-01-24T10:52:43;17.85;;;9.27;;
51636;SDS011;37713;53.254;6.460;2023-01-24T10:55:33;19.58;;;10.20;;
51636;SDS011;37713;53.254;6.460;2023-01-24T10:58:02;20.15;;;9.23;;
51636;SDS011;37713;53.254;6.460;2023-01-24T11:00:45;17.13;;;8.75;;
51636;SDS011;37713;53.254;6.460;2023-01-24T11:03:22;19.92;;;10.07;;
51636;SDS011;37713;53.254;6.460;2023-01-24T11:05:52;18.15;;;9.45;;
51636;SDS011;37713;53.254;6.460;2023-01-24T11:08:41;17.63;;;9.55;;
51636;SDS011;37713;53.254;6.460;2023-01-24T11:11:17;17.15;;;8.93;;
51636;SDS011;37713;53.254;6.460;2023-01-24T11:13:57;18.05;;;8.85;;
51636;SDS011;37713;53.254;6.460;2023-01-24T11:16:40;17.65;;;9.30;;
51636;SDS011;37713;53.254;6.460;2023-01-24T11:19:21;19.90;;;10.60;;
51636;SDS011;37713;53.254;6.460;2023-01-24T11:21:52;18.25;;;9.65;;
51636;SDS011;37713;53.254;6.460;2023-01-24T11:24:20;22.30;;;10.93;;
51636;SDS011;37713;53.254;6.460;2023-01-24T11:26:57;19.95;;;10.32;;
51636;SDS011;37713;53.254;6.460;2023-01-24T11:29:38;16.75;;;9.35;;
51636;SDS011;37713;53.254;6.460;2023-01-24T11:35:01;19.27;;;10.00;;
51636;SDS011;37713;53.254;6.460;2023-01-24T12:08:22;19.25;;;9.93;;
51636;SDS011;37713;53.254;6.460;2023-01-24T12:21:24;17.58;;;9.60;;
51636;SDS011;37713;53.254;6.460;2023-01-24T12:26:27;17.30;;;9.98;;
51636;SDS011;37713;53.254;6.460;2023-01-24T12:34:09;18.90;;;9.48;;
51636;SDS011;37713;53.254;6.460;2023-01-24T12:37:33;21.52;;;10.52;;
51636;SDS011;37713;53.254;6.460;2023-01-24T12:42:48;18.13;;;9.85;;
51636;SDS011;37713;53.254;6.460;2023-01-24T12:45:19;22.08;;;10.38;;
51636;SDS011;37713;53.254;6.460;2023-01-24T12:53:29;18.15;;;9.52;;
51636;SDS011;37713;53.254;6.460;2023-01-24T12:56:15;20.25;;;10.88;;
51636;SDS011;37713;53.254;6.460;2023-01-24T12:58:46;21.13;;;10.07;;
51636;SDS011;37713;53.254;6.460;2023-01-24T13:04:25;18.77;;;10.18;;
51636;SDS011;37713;53.254;6.460;2023-01-24T13:07:16;19.10;;;10.02;;
51636;SDS011;37713;53.254;6.460;2023-01-24T13:12:50;20.67;;;10.65;;
51636;SDS011;37713;53.254;6.460;2023-01-24T13:15:18;20.27;;;10.93;;
51636;SDS011;37713;53.254;6.460;2023-01-24T13:21:01;21.10;;;10.70;;
51636;SDS011;37713;53.254;6.460;2023-01-24T13:34:50;22.27;;;12.00;;
51636;SDS011;37713;53.254;6.460;2023-01-24T13:37:20;21.27;;;11.30;;
51636;SDS011;37713;53.254;6.460;2023-01-24T13:42:38;18.83;;;10.50;;
51636;SDS011;37713;53.254;6.460;2023-01-24T13:47:59;20.25;;;11.48;;
51636;SDS011;37713;53.254;6.460;2023-01-24T13:52:52;18.83;;;10.07;;
51636;SDS011;37713;53.254;6.460;2023-01-24T14:00:31;20.50;;;11.13;;
51636;SDS011;37713;53.254;6.460;2023-01-24T14:05:54;22.50;;;12.38;;
51636;SDS011;37713;53.254;6.460;2023-01-24T14:16:57;22.48;;;12.00;;
51636;SDS011;37713;53.254;6.460;2023-01-24T14:19:17;23.30;;;11.93;;
51636;SDS011;37713;53.254;6.460;2023-01-24T14:26:51;22.55;;;12.15;;
51636;SDS011;37713;53.254;6.460;2023-01-24T14:29:18;21.20;;;11.43;;
51636;SDS011;37713;53.254;6.460;2023-01-24T14:31:46;21.30;;;12.35;;
51636;SDS011;37713;53.254;6.460;2023-01-24T14:34:26;23.88;;;12.85;;
51636;SDS011;37713;53.254;6.460;2023-01-24T14:37:03;21.83;;;12.00;;
51636;SDS011;37713;53.254;6.460;2023-01-24T14:39:34;23.63;;;12.38;;
51636;SDS011;37713;53.254;6.460;2023-01-24T14:42:04;22.27;;;12.13;;
51636;SDS011;37713;53.254;6.460;2023-01-24T14:44:56;22.92;;;12.60;;
51636;SDS011;37713;53.254;6.460;2023-01-24T14:47:22;27.63;;;13.18;;
51636;SDS011;37713;53.254;6.460;2023-01-24T14:49:51;22.10;;;11.90;;
51636;SDS011;37713;53.254;6.460;2023-01-24T14:52:20;22.95;;;12.93;;
51636;SDS011;37713;53.254;6.460;2023-01-24T14:54:47;23.13;;;12.50;;
51636;SDS011;37713;53.254;6.460;2023-01-24T15:02:28;23.10;;;13.35;;
51636;SDS011;37713;53.254;6.460;2023-01-24T15:04:54;25.35;;;12.75;;
51636;SDS011;37713;53.254;6.460;2023-01-24T15:07:20;21.42;;;11.93;;
51636;SDS011;37713;53.254;6.460;2023-01-24T15:09:47;22.40;;;12.65;;
51636;SDS011;37713;53.254;6.460;2023-01-24T15:12:30;23.83;;;13.07;;
51636;SDS011;37713;53.254;6.460;2023-01-24T15:14:58;26.42;;;12.88;;
51636;SDS011;37713;53.254;6.460;2023-01-24T15:17:30;25.20;;;13.60;;
51636;SDS011;37713;53.254;6.460;2023-01-24T15:19:58;27.70;;;14.20;;
51636;SDS011;37713;53.254;6.460;2023-01-24T15:22:32;24.13;;;13.18;;
51636;SDS011;37713;53.254;6.460;2023-01-24T15:25:02;25.90;;;14.13;;
51636;SDS011;37713;53.254;6.460;2023-01-24T15:32:42;24.08;;;12.90;;
51636;SDS011;37713;53.254;6.460;2023-01-24T15:40:31;29.52;;;15.25;;
51636;SDS011;37713;53.254;6.460;2023-01-24T15:42:58;29.55;;;15.27;;
51636;SDS011;37713;53.254;6.460;2023-01-24T15:45:51;29.70;;;15.77;;
51636;SDS011;37713;53.254;6.460;2023-01-24T15:48:39;29.50;;;16.27;;
51636;SDS011;37713;53.254;6.460;2023-01-24T15:51:25;28.30;;;15.10;;
51636;SDS011;37713;53.254;6.460;2023-01-24T15:53:55;28.48;;;15.65;;
51636;SDS011;37713;53.254;6.460;2023-01-24T15:56:21;25.83;;;14.45;;
51636;SDS011;37713;53.254;6.460;2023-01-24T15:58:47;28.00;;;15.50;;
51636;SDS011;37713;53.254;6.460;2023-01-24T16:01:14;28.40;;;15.05;;
51636;SDS011;37713;53.254;6.460;2023-01-24T16:03:40;28.40;;;15.00;;
51636;SDS011;37713;53.254;6.460;2023-01-24T16:06:06;29.65;;;16.27;;
51636;SDS011;37713;53.254;6.460;2023-01-24T16:08:32;48.58;;;23.52;;
51636;SDS011;37713;53.254;6.460;2023-01-24T16:10:58;32.65;;;18.05;;
51636;SDS011;37713;53.254;6.460;2023-01-24T16:18:21;29.25;;;15.30;;
51636;SDS011;37713;53.254;6.460;2023-01-24T16:20:47;31.02;;;17.00;;
51636;SDS011;37713;53.254;6.460;2023-01-24T16:23:13;28.13;;;16.08;;
51636;SDS011;37713;53.254;6.460;2023-01-24T16:25:39;32.17;;;16.70;;
51636;SDS011;37713;53.254;6.460;2023-01-24T16:28:05;28.73;;;15.80;;
51636;SDS011;37713;53.254;6.460;2023-01-24T16:30:40;31.08;;;17.23;;
51636;SDS011;37713;53.254;6.460;2023-01-24T16:33:06;28.90;;;16.30;;
51636;SDS011;37713;53.254;6.460;2023-01-24T16:35:32;26.08;;;15.32;;
51636;SDS011;37713;53.254;6.460;2023-01-24T16:37:58;32.45;;;16.50;;
51636;SDS011;37713;53.254;6.460;2023-01-24T16:40:24;28.67;;;16.40;;
51636;SDS011;37713;53.254;6.460;2023-01-24T16:42:49;29.95;;;17.23;;
51636;SDS011;37713;53.254;6.460;2023-01-24T16:45:17;29.95;;;16.55;;
51636;SDS011;37713;53.254;6.460;2023-01-24T16:47:44;29.92;;;16.48;;
51636;SDS011;37713;53.254;6.460;2023-01-24T16:50:12;30.38;;;16.40;;
51636;SDS011;37713;53.254;6.460;2023-01-24T16:52:38;31.42;;;17.17;;
51636;SDS011;37713;53.254;6.460;2023-01-24T16:55:05;29.13;;;16.55;;
51636;SDS011;37713;53.254;6.460;2023-01-24T16:57:32;32.67;;;16.85;;
51636;SDS011;37713;53.254;6.460;2023-01-24T16:59:58;32.15;;;17.38;;
51636;SDS011;37713;53.254;6.460;2023-01-24T17:02:24;30.90;;;17.75;;
51636;SDS011;37713;53.254;6.460;2023-01-24T17:04:49;31.67;;;16.80;;
51636;SDS011;37713;53.254;6.460;2023-01-24T17:07:15;34.13;;;18.58;;
51636;SDS011;37713;53.254;6.460;2023-01-24T17:09:41;31.88;;;17.60;;
51636;SDS011;37713;53.254;6.460;2023-01-24T17:12:07;32.25;;;17.02;;
51636;SDS011;37713;53.254;6.460;2023-01-24T17:14:33;31.42;;;18.08;;
51636;SDS011;37713;53.254;6.460;2023-01-24T17:17:00;32.20;;;17.77;;
51636;SDS011;37713;53.254;6.460;2023-01-24T17:19:26;33.75;;;18.20;;
51636;SDS011;37713;53.254;6.460;2023-01-24T17:21:52;28.35;;;16.65;;
51636;SDS011;37713;53.254;6.460;2023-01-24T17:24:18;28.95;;;15.63;;
51636;SDS011;37713;53.254;6.460;2023-01-24T17:26:44;28.20;;;16.65;;
51636;SDS011;37713;53.254;6.460;2023-01-24T17:29:10;33.00;;;17.13;;
51636;SDS011;37713;53.254;6.460;2023-01-24T17:31:36;30.10;;;16.33;;